createdAt,value
2018-12-27T00:01:27.451Z,2.60
2018-12-27T00:03:56.334Z,2.50
2018-12-27T00:06:25.332Z,2.50
2018-12-27T00:08:54.835Z,2.40
2018-12-27T00:11:23.690Z,2.40
2018-12-27T00:13:52.615Z,2.40
2018-12-27T00:16:21.492Z,2.40
2018-12-27T00:18:50.420Z,2.40
2018-12-27T00:21:19.974Z,2.40
2018-12-27T00:23:48.833Z,2.30
2018-12-27T00:26:17.671Z,2.30
2018-12-27T00:28:46.748Z,2.40
2018-12-27T00:31:16.150Z,2.40
2018-12-27T00:33:45.175Z,2.40
2018-12-27T00:36:14.179Z,2.40
2018-12-27T00:38:43.085Z,2.40
2018-12-27T00:41:12.270Z,2.40
2018-12-27T00:43:41.262Z,2.40
2018-12-27T00:46:10.250Z,2.50
2018-12-27T00:48:39.320Z,2.50
2018-12-27T00:51:08.528Z,2.50
2018-12-27T00:53:40.405Z,2.40
2018-12-27T00:56:09.521Z,2.40
2018-12-27T00:58:38.769Z,2.40
2018-12-27T01:01:07.885Z,2.30
2018-12-27T01:03:36.911Z,2.30
2018-12-27T01:06:05.938Z,2.30
2018-12-27T01:08:34.991Z,2.30
2018-12-27T01:11:04.061Z,2.30
2018-12-27T01:13:33.159Z,2.30
2018-12-27T01:16:02.389Z,2.30
2018-12-27T01:18:31.529Z,2.30
2018-12-27T01:21:00.536Z,2.30
2018-12-27T01:23:29.683Z,2.30
2018-12-27T01:25:58.673Z,2.30
2018-12-27T01:28:27.732Z,2.30
2018-12-27T01:30:57.191Z,2.30
2018-12-27T01:33:26.218Z,2.30
2018-12-27T01:35:55.262Z,2.30
2018-12-27T01:38:24.241Z,2.30
2018-12-27T01:40:53.856Z,2.30
2018-12-27T01:43:23.021Z,2.30
2018-12-27T01:45:52.004Z,2.30
2018-12-27T01:48:20.981Z,2.30
2018-12-27T01:50:50.073Z,2.30
2018-12-27T01:53:20.719Z,2.30
2018-12-27T01:55:49.721Z,2.30
2018-12-27T01:58:18.701Z,2.30
2018-12-27T02:00:47.646Z,2.30
2018-12-27T02:03:16.678Z,2.30
2018-12-27T02:05:47.166Z,2.30
2018-12-27T02:08:16.347Z,2.30
2018-12-27T02:10:45.370Z,2.30
2018-12-27T02:13:15.153Z,2.30
2018-12-27T02:15:44.864Z,2.30
2018-12-27T02:18:14.029Z,2.30
2018-12-27T02:20:43.181Z,2.30
2018-12-27T02:23:41.498Z,2.30
2018-12-27T02:25:58.157Z,2.30
2018-12-27T02:28:27.332Z,2.30
2018-12-27T02:30:56.669Z,2.20
2018-12-27T02:33:25.836Z,2.20
2018-12-27T02:35:54.878Z,2.20
2018-12-27T02:38:24.071Z,2.10
2018-12-27T02:40:53.087Z,2.10
2018-12-27T02:43:22.252Z,2.10
2018-12-27T02:45:51.365Z,2.20
2018-12-27T02:48:20.523Z,2.30
2018-12-27T02:50:49.495Z,2.30
2018-12-27T02:53:18.613Z,2.20
2018-12-27T02:55:47.769Z,2.20
2018-12-27T02:58:17.142Z,2.30
2018-12-27T03:00:46.590Z,2.20
2018-12-27T03:03:15.438Z,2.20
2018-12-27T03:05:44.489Z,2.20
2018-12-27T03:08:13.466Z,2.20
2018-12-27T03:10:42.507Z,2.10
2018-12-27T03:13:13.455Z,2.10
2018-12-27T03:15:42.508Z,2.10
2018-12-27T03:18:11.601Z,2.10
2018-12-27T03:20:40.813Z,2.10
2018-12-27T03:23:09.877Z,2.10
2018-12-27T03:25:38.779Z,2.10
2018-12-27T03:28:07.770Z,2.10
2018-12-27T03:30:37.004Z,2.10
2018-12-27T03:33:06.086Z,2.00
2018-12-27T03:35:35.019Z,1.90
2018-12-27T03:38:04.246Z,1.90
2018-12-27T03:40:33.160Z,1.90
2018-12-27T03:43:02.224Z,1.80
2018-12-27T03:45:31.278Z,1.80
2018-12-27T03:48:00.180Z,1.80
2018-12-27T03:50:29.294Z,1.70
2018-12-27T03:52:58.349Z,1.70
2018-12-27T03:55:27.276Z,1.60
2018-12-27T03:57:56.377Z,1.60
2018-12-27T04:00:26.190Z,1.60
2018-12-27T04:02:55.151Z,1.50
2018-12-27T04:05:25.826Z,1.50
2018-12-27T04:07:54.906Z,1.50
2018-12-27T04:10:24.617Z,1.30
2018-12-27T04:12:53.606Z,1.30
2018-12-27T04:15:22.494Z,1.20
2018-12-27T04:17:51.448Z,1.10
2018-12-27T04:20:20.346Z,1.00
2018-12-27T04:22:49.309Z,0.90
2018-12-27T04:25:18.491Z,0.80
2018-12-27T04:27:47.351Z,0.70
2018-12-27T04:30:16.800Z,0.70
2018-12-27T04:32:46.098Z,0.70
2018-12-27T04:35:15.414Z,0.70
2018-12-27T04:37:44.327Z,0.60
2018-12-27T04:40:13.207Z,0.60
2018-12-27T04:42:42.936Z,0.40
2018-12-27T04:45:11.824Z,0.40
2018-12-27T04:47:40.801Z,0.30
2018-12-27T04:50:09.792Z,0.30
2018-12-27T04:52:38.627Z,0.10
2018-12-27T04:55:07.472Z,0.10
2018-12-27T04:57:36.410Z,0.00
2018-12-27T05:00:07.037Z,0.00
2018-12-27T05:02:35.919Z,-0.10
2018-12-27T05:05:05.297Z,-0.20
2018-12-27T05:07:34.288Z,-0.20
2018-12-27T05:10:03.386Z,-0.30
2018-12-27T05:12:32.184Z,-0.40
2018-12-27T05:15:01.101Z,-0.40
2018-12-27T05:17:31.579Z,-0.50
2018-12-27T05:20:00.478Z,-0.50
2018-12-27T05:22:30.402Z,-0.40
2018-12-27T05:24:59.233Z,-0.40
2018-12-27T05:27:28.231Z,-0.40
2018-12-27T05:29:57.002Z,-0.40
2018-12-27T05:32:25.975Z,-0.30
2018-12-27T05:34:54.894Z,-0.30
2018-12-27T05:37:23.744Z,-0.30
2018-12-27T05:39:52.677Z,-0.40
2018-12-27T05:42:22.475Z,-0.40
2018-12-27T05:44:51.376Z,-0.40
2018-12-27T05:47:20.852Z,-0.50
2018-12-27T05:49:49.721Z,-0.60
2018-12-27T05:52:18.637Z,-0.70
2018-12-27T05:54:48.142Z,-0.70
2018-12-27T05:57:17.066Z,-0.70
2018-12-27T05:59:46.018Z,-0.80
2018-12-27T06:02:14.989Z,-0.90
2018-12-27T06:04:43.875Z,-0.90
2018-12-27T06:07:12.881Z,-1.00
2018-12-27T06:09:41.643Z,-1.00
2018-12-27T06:12:10.618Z,-1.00
2018-12-27T06:14:39.613Z,-1.10
2018-12-27T06:17:08.608Z,-1.10
2018-12-27T06:19:37.542Z,-1.10
2018-12-27T06:22:06.444Z,-1.10
2018-12-27T06:24:36.546Z,-1.10
2018-12-27T06:27:05.501Z,-1.20
2018-12-27T06:29:34.564Z,-1.10
2018-12-27T06:32:03.705Z,-1.10
2018-12-27T06:34:32.640Z,-1.00
2018-12-27T06:37:02.138Z,-0.80
2018-12-27T06:39:34.126Z,-0.80
2018-12-27T06:42:03.406Z,-0.80
2018-12-27T06:44:32.316Z,-0.80
2018-12-27T06:47:01.212Z,-0.90
2018-12-27T06:49:30.909Z,-0.90
2018-12-27T06:51:59.800Z,-0.80
2018-12-27T06:54:28.770Z,-0.80
2018-12-27T06:56:57.676Z,-0.80
2018-12-27T06:59:28.111Z,-0.90
2018-12-27T07:01:59.613Z,-0.90
2018-12-27T07:04:28.499Z,-1.00
2018-12-27T07:06:57.456Z,-1.10
2018-12-27T07:09:26.381Z,-1.20
2018-12-27T07:11:56.413Z,-1.20
2018-12-27T07:14:25.552Z,-1.10
2018-12-27T07:16:54.576Z,-1.10
2018-12-27T07:19:23.482Z,-1.00
2018-12-27T07:21:52.474Z,-1.00
2018-12-27T07:24:21.306Z,-0.90
2018-12-27T07:26:50.272Z,-0.80
2018-12-27T07:29:19.239Z,-0.80
2018-12-27T07:31:49.367Z,-0.80
2018-12-27T07:34:18.405Z,-0.80
2018-12-27T07:36:47.339Z,-0.80
2018-12-27T07:39:16.603Z,-0.80
2018-12-27T07:41:45.489Z,-0.80
2018-12-27T07:44:14.451Z,-0.70
2018-12-27T07:46:43.405Z,-0.60
2018-12-27T07:49:12.338Z,-0.50
2018-12-27T07:51:41.203Z,-0.40
2018-12-27T07:54:10.182Z,-0.10
2018-12-27T07:56:39.110Z,0.10
2018-12-27T07:59:08.110Z,0.60
2018-12-27T08:01:37.118Z,1.30
2018-12-27T08:04:06.122Z,2.10
2018-12-27T08:06:35.069Z,2.80
2018-12-27T08:09:04.937Z,3.30
2018-12-27T08:11:34.162Z,3.70
2018-12-27T08:14:03.112Z,3.80
2018-12-27T08:16:32.149Z,3.60
2018-12-27T08:19:02.419Z,3.50
2018-12-27T08:21:31.299Z,3.70
2018-12-27T08:24:01.307Z,3.90
2018-12-27T08:26:30.484Z,4.20
2018-12-27T08:28:59.446Z,4.10
2018-12-27T08:31:28.700Z,3.90
2018-12-27T08:33:57.706Z,3.80
2018-12-27T08:36:26.867Z,3.50
2018-12-27T08:38:55.793Z,3.30
2018-12-27T08:41:25.246Z,3.10
2018-12-27T08:43:54.166Z,2.90
2018-12-27T08:46:23.067Z,2.70
2018-12-27T08:48:52.003Z,2.60
2018-12-27T08:51:20.962Z,2.50
2018-12-27T08:53:49.856Z,2.50
2018-12-27T08:56:18.771Z,2.50
2018-12-27T08:58:47.604Z,2.50
2018-12-27T09:01:20.034Z,2.40
2018-12-27T09:03:48.939Z,2.30
2018-12-27T09:06:17.857Z,2.30
2018-12-27T09:08:46.752Z,2.20
2018-12-27T09:11:16.949Z,2.20
2018-12-27T09:13:45.804Z,2.20
2018-12-27T09:16:14.649Z,2.20
2018-12-27T09:18:43.512Z,2.30
2018-12-27T09:21:13.021Z,2.30
2018-12-27T09:23:42.114Z,2.30
2018-12-27T09:26:11.601Z,2.30
2018-12-27T09:28:40.439Z,2.50
2018-12-27T09:31:09.631Z,2.60
2018-12-27T09:33:38.701Z,2.80
2018-12-27T09:36:08.979Z,3.10
2018-12-27T09:38:37.844Z,3.40
2018-12-27T09:41:07.019Z,3.60
2018-12-27T09:43:35.943Z,3.80
2018-12-27T09:46:04.987Z,4.00
2018-12-27T09:48:33.791Z,4.00
2018-12-27T09:51:02.878Z,4.00
2018-12-27T09:53:31.636Z,4.10
2018-12-27T09:56:00.640Z,4.30
2018-12-27T09:58:29.512Z,4.30
2018-12-27T10:00:58.515Z,4.30
2018-12-27T10:03:27.383Z,4.30
2018-12-27T10:05:57.690Z,4.50
2018-12-27T10:08:26.612Z,4.60
2018-12-27T10:10:55.433Z,4.70
2018-12-27T10:13:24.813Z,4.60
2018-12-27T10:15:53.773Z,4.50
2018-12-27T10:18:22.900Z,4.40
2018-12-27T10:20:51.831Z,4.30
2018-12-27T10:23:20.731Z,4.40
2018-12-27T10:25:49.616Z,4.40
2018-12-27T10:28:18.550Z,4.40
2018-12-27T10:30:48.487Z,4.40
2018-12-27T10:33:17.510Z,4.30
2018-12-27T10:35:46.326Z,4.30
2018-12-27T10:38:15.333Z,4.20
2018-12-27T10:40:45.198Z,4.20
2018-12-27T10:43:14.119Z,4.20
2018-12-27T10:45:43.239Z,4.20
2018-12-27T10:48:12.298Z,4.30
2018-12-27T10:50:41.286Z,4.30
2018-12-27T10:53:10.197Z,4.40
2018-12-27T10:55:39.145Z,4.50
2018-12-27T10:58:08.151Z,4.60
2018-12-27T11:00:38.371Z,4.80
2018-12-27T11:03:07.281Z,5.00
2018-12-27T11:05:38.295Z,5.10
2018-12-27T11:08:08.820Z,5.20
2018-12-27T11:10:37.837Z,5.30
2018-12-27T11:13:06.809Z,5.40
2018-12-27T11:15:38.172Z,5.50
2018-12-27T11:18:07.210Z,5.70
2018-12-27T11:20:36.269Z,5.70
2018-12-27T11:23:05.170Z,5.80
2018-12-27T11:25:34.040Z,6.00
2018-12-27T11:28:03.655Z,6.00
2018-12-27T11:30:33.004Z,6.00
2018-12-27T11:33:02.268Z,6.00
2018-12-27T11:35:31.276Z,5.90
2018-12-27T11:38:01.575Z,5.90
2018-12-27T11:40:32.739Z,5.90
2018-12-27T11:43:01.666Z,5.90
2018-12-27T11:45:30.646Z,5.90
2018-12-27T11:48:00.297Z,5.80
2018-12-27T11:50:29.202Z,5.80
2018-12-27T11:52:58.173Z,5.90
2018-12-27T11:55:27.087Z,5.90
2018-12-27T11:57:56.587Z,5.90
2018-12-27T12:00:25.571Z,6.00
2018-12-27T12:02:54.526Z,6.00
2018-12-27T12:05:23.795Z,6.00
2018-12-27T12:07:52.734Z,6.00
2018-12-27T12:10:21.712Z,6.00
2018-12-27T12:12:50.618Z,6.00
2018-12-27T12:15:20.311Z,6.00
2018-12-27T12:17:49.325Z,6.00
2018-12-27T12:20:18.419Z,6.00
2018-12-27T12:22:48.848Z,6.00
2018-12-27T12:25:17.810Z,6.10
2018-12-27T12:27:48.114Z,6.10
2018-12-27T12:30:18.209Z,6.10
2018-12-27T12:32:48.664Z,6.10
2018-12-27T12:35:17.639Z,6.10
2018-12-27T12:37:50.125Z,6.10
2018-12-27T12:40:19.067Z,6.00
2018-12-27T12:42:47.920Z,6.00
2018-12-27T12:45:16.880Z,6.00
2018-12-27T12:47:45.906Z,6.00
2018-12-27T12:50:14.977Z,6.10
2018-12-27T12:52:43.950Z,6.10
2018-12-27T12:55:12.873Z,6.10
2018-12-27T12:57:43.098Z,6.10
2018-12-27T13:00:12.340Z,6.10
2018-12-27T13:02:41.285Z,6.10
2018-12-27T13:05:10.313Z,6.10
2018-12-27T13:07:39.599Z,6.00
2018-12-27T13:10:09.221Z,6.00
2018-12-27T13:12:38.227Z,6.00
2018-12-27T13:15:08.414Z,6.00
2018-12-27T13:17:37.336Z,6.00
2018-12-27T13:20:08.414Z,6.00
2018-12-27T13:22:37.315Z,6.00
2018-12-27T13:25:06.347Z,6.00
2018-12-27T13:27:35.274Z,6.00
2018-12-27T13:30:05.494Z,6.00
2018-12-27T13:32:35.761Z,6.00
2018-12-27T13:35:05.592Z,6.00
2018-12-27T13:37:35.299Z,6.00
2018-12-27T13:40:04.874Z,6.00
2018-12-27T13:42:33.825Z,6.00
2018-12-27T13:45:02.970Z,6.00
2018-12-27T13:47:32.036Z,6.00
2018-12-27T13:50:02.412Z,6.00
2018-12-27T13:52:31.767Z,6.00
2018-12-27T13:55:01.065Z,6.00
2018-12-27T13:57:30.010Z,5.90
2018-12-27T13:59:59.008Z,5.90
2018-12-27T14:02:27.982Z,5.80
2018-12-27T14:04:57.528Z,5.80
2018-12-27T14:07:26.497Z,5.70
2018-12-27T14:09:56.573Z,5.70
2018-12-27T14:12:25.526Z,5.70
2018-12-27T14:14:55.182Z,5.70
2018-12-27T14:17:24.072Z,5.70
2018-12-27T14:19:55.416Z,5.60
2018-12-27T14:22:25.926Z,5.60
2018-12-27T14:24:58.056Z,5.60
2018-12-27T14:27:25.563Z,5.50
2018-12-27T14:29:54.555Z,5.50
2018-12-27T14:32:24.307Z,5.50
2018-12-27T14:34:54.729Z,5.40
2018-12-27T14:37:23.845Z,5.40
2018-12-27T14:39:53.301Z,5.40
2018-12-27T14:42:22.186Z,5.30
2018-12-27T14:44:51.065Z,5.30
2018-12-27T14:47:20.204Z,5.30
2018-12-27T14:49:50.765Z,5.20
2018-12-27T14:52:19.681Z,5.20
2018-12-27T14:54:48.486Z,5.10
2018-12-27T14:57:18.032Z,5.00
2018-12-27T14:59:48.335Z,5.00
2018-12-27T15:02:17.262Z,4.90
2018-12-27T15:04:46.973Z,4.90
2018-12-27T15:07:17.455Z,4.80
2018-12-27T15:09:46.435Z,4.80
2018-12-27T15:12:15.356Z,4.70
2018-12-27T15:14:44.265Z,4.70
2018-12-27T15:17:13.375Z,4.60
2018-12-27T15:19:43.719Z,4.50
2018-12-27T15:22:12.667Z,4.60
2018-12-27T15:24:41.699Z,4.60
2018-12-27T15:27:12.086Z,4.60
2018-12-27T15:29:41.077Z,4.50
2018-12-27T15:32:09.963Z,4.50
2018-12-27T15:34:38.900Z,4.50
2018-12-27T15:37:07.980Z,4.50
2018-12-27T15:39:36.920Z,4.40
2018-12-27T15:42:05.972Z,4.30
2018-12-27T15:44:34.998Z,4.30
2018-12-27T15:47:03.888Z,4.20
2018-12-27T15:49:34.012Z,4.30
2018-12-27T15:52:03.258Z,4.30
2018-12-27T15:54:32.933Z,4.30
2018-12-27T15:57:01.992Z,4.30
2018-12-27T15:59:33.026Z,4.30
2018-12-27T16:02:02.224Z,4.30
2018-12-27T16:04:31.105Z,4.30
2018-12-27T16:07:01.908Z,4.30
2018-12-27T16:09:30.789Z,4.20
2018-12-27T16:11:59.685Z,4.20
2018-12-27T16:14:29.137Z,4.10
2018-12-27T16:16:59.840Z,4.10
2018-12-27T16:19:29.543Z,4.10
2018-12-27T16:21:59.371Z,4.00
2018-12-27T16:24:28.421Z,4.00
2018-12-27T16:26:57.522Z,4.00
2018-12-27T16:29:26.502Z,3.90
2018-12-27T16:31:57.006Z,3.90
2018-12-27T16:34:26.419Z,3.90
2018-12-27T16:36:56.032Z,3.80
2018-12-27T16:39:25.077Z,3.80
2018-12-27T16:41:56.403Z,3.80
2018-12-27T16:44:25.407Z,3.70
2018-12-27T16:46:54.477Z,3.70
2018-12-27T16:49:23.924Z,3.60
2018-12-27T16:51:52.853Z,3.50
2018-12-27T16:54:23.521Z,3.50
2018-12-27T16:56:53.098Z,3.50
2018-12-27T16:59:24.750Z,3.50
2018-12-27T17:01:53.683Z,3.50
2018-12-27T17:04:22.609Z,3.50
2018-12-27T17:06:51.507Z,3.40
2018-12-27T17:09:20.440Z,3.30
2018-12-27T17:11:49.351Z,3.30
2018-12-27T17:14:19.149Z,3.30
2018-12-27T17:16:48.077Z,3.30
2018-12-27T17:19:16.946Z,3.40
2018-12-27T17:21:45.873Z,3.50
2018-12-27T17:24:14.898Z,3.50
2018-12-27T17:26:43.824Z,3.60
2018-12-27T17:29:12.681Z,3.60
2018-12-27T17:31:43.892Z,3.70
2018-12-27T17:34:12.787Z,3.60
2018-12-27T17:36:41.651Z,3.60
2018-12-27T17:39:10.766Z,3.50
2018-12-27T17:41:41.243Z,3.50
2018-12-27T17:44:10.226Z,3.40
2018-12-27T17:46:39.075Z,3.40
2018-12-27T17:49:08.127Z,3.40
2018-12-27T17:51:38.625Z,3.40
2018-12-27T17:54:07.863Z,3.40
2018-12-27T17:56:36.841Z,3.30
2018-12-27T17:59:07.433Z,3.30
2018-12-27T18:01:36.647Z,3.30
2018-12-27T18:04:05.585Z,3.30
2018-12-27T18:06:34.551Z,3.40
2018-12-27T18:09:06.101Z,3.40
2018-12-27T18:11:34.979Z,3.30
2018-12-27T18:14:03.899Z,3.20
2018-12-27T18:16:34.469Z,3.20
2018-12-27T18:19:03.432Z,3.10
2018-12-27T18:21:32.292Z,3.10
2018-12-27T18:24:01.252Z,3.00
2018-12-27T18:26:30.180Z,2.80
2018-12-27T18:28:59.248Z,2.70
2018-12-27T18:31:29.224Z,2.70
2018-12-27T18:33:58.149Z,2.80
2018-12-27T18:36:27.162Z,2.80
2018-12-27T18:38:56.320Z,2.70
2018-12-27T18:41:25.614Z,2.60
2018-12-27T18:43:55.233Z,2.40
2018-12-27T18:46:24.760Z,2.30
2018-12-27T18:48:53.917Z,2.20
2018-12-27T18:51:23.050Z,2.20
2018-12-27T18:53:52.400Z,2.00
2018-12-27T18:56:21.962Z,1.90
2018-12-27T18:58:50.985Z,1.90
2018-12-27T19:01:20.190Z,1.80
2018-12-27T19:03:51.570Z,1.80
2018-12-27T19:06:20.479Z,1.70
2018-12-27T19:08:50.559Z,1.70
2018-12-27T19:11:22.622Z,1.60
2018-12-27T19:13:51.526Z,1.80
2018-12-27T19:16:20.800Z,1.80
2018-12-27T19:18:49.859Z,1.70
2018-12-27T19:21:18.789Z,1.60
2018-12-27T19:23:49.117Z,1.50
2018-12-27T19:26:19.581Z,1.40
2018-12-27T19:28:49.665Z,1.30
2018-12-27T19:31:20.614Z,1.30
2018-12-27T19:33:49.555Z,1.40
2018-12-27T19:36:18.436Z,1.60
2018-12-27T19:38:47.626Z,1.50
2018-12-27T19:41:16.543Z,1.40
2018-12-27T19:43:47.414Z,1.40
2018-12-27T19:46:16.514Z,1.40
2018-12-27T19:48:45.412Z,1.40
2018-12-27T19:51:14.357Z,1.30
2018-12-27T19:53:43.858Z,1.30
2018-12-27T19:56:12.998Z,1.20
2018-12-27T19:58:43.061Z,1.20
2018-12-27T20:01:12.132Z,1.20
2018-12-27T20:03:41.156Z,1.10
2018-12-27T20:06:10.092Z,1.10
2018-12-27T20:08:39.071Z,1.10
2018-12-27T20:11:08.028Z,1.20
2018-12-27T20:13:36.941Z,1.20
2018-12-27T20:16:06.783Z,1.10
2018-12-27T20:18:35.648Z,1.10
2018-12-27T20:21:05.493Z,1.30
2018-12-27T20:23:35.793Z,1.30
2018-12-27T20:26:04.704Z,1.20
2018-12-27T20:28:33.835Z,1.20
2018-12-27T20:31:04.750Z,1.10
2018-12-27T20:33:33.617Z,1.10
2018-12-27T20:36:02.956Z,1.00
2018-12-27T20:38:31.888Z,1.00
2018-12-27T20:41:00.782Z,1.00
2018-12-27T20:43:29.700Z,1.10
2018-12-27T20:45:59.875Z,1.20
2018-12-27T20:48:28.785Z,1.20
2018-12-27T20:50:57.863Z,1.10
2018-12-27T20:53:27.078Z,1.00
2018-12-27T20:55:56.099Z,0.90
2018-12-27T20:58:25.016Z,0.90
2018-12-27T21:00:53.881Z,0.90
2018-12-27T21:03:22.889Z,0.90
2018-12-27T21:05:51.782Z,0.80
2018-12-27T21:08:20.735Z,0.80
2018-12-27T21:10:49.618Z,0.80
2018-12-27T21:13:18.688Z,0.90
2018-12-27T21:15:47.798Z,0.90
2018-12-27T21:18:16.788Z,0.90
2018-12-27T21:20:45.688Z,0.90
2018-12-27T21:23:15.149Z,0.90
2018-12-27T21:25:44.249Z,0.90
2018-12-27T21:28:13.298Z,0.90
2018-12-27T21:30:42.566Z,1.00
2018-12-27T21:33:12.905Z,1.00
2018-12-27T21:35:41.775Z,1.00
2018-12-27T21:38:10.673Z,1.10
2018-12-27T21:40:40.619Z,1.20
2018-12-27T21:43:09.710Z,1.40
2018-12-27T21:45:38.668Z,1.40
2018-12-27T21:48:09.320Z,1.40
2018-12-27T21:50:39.910Z,1.30
2018-12-27T21:53:08.903Z,1.30
2018-12-27T21:55:37.768Z,1.30
2018-12-27T21:58:06.655Z,1.20
2018-12-27T22:00:38.378Z,1.20
2018-12-27T22:03:08.432Z,1.10
2018-12-27T22:05:38.910Z,1.10
2018-12-27T22:08:07.867Z,1.00
2018-12-27T22:10:39.658Z,1.10
2018-12-27T22:13:09.282Z,1.20
2018-12-27T22:15:38.930Z,1.10
2018-12-27T22:18:07.844Z,1.10
2018-12-27T22:20:38.837Z,1.10
2018-12-27T22:23:08.517Z,1.00
2018-12-27T22:25:38.163Z,1.00
2018-12-27T22:28:07.071Z,0.80
2018-12-27T22:30:36.252Z,0.90
2018-12-27T22:33:05.773Z,0.90
2018-12-27T22:35:34.715Z,1.00
2018-12-27T22:38:04.875Z,1.20
2018-12-27T22:40:33.692Z,1.30
2018-12-27T22:43:03.024Z,1.20
2018-12-27T22:45:33.580Z,1.20
2018-12-27T22:48:02.502Z,1.20
2018-12-27T22:50:31.471Z,1.20
2018-12-27T22:53:00.593Z,1.20
2018-12-27T22:55:30.418Z,1.10
2018-12-27T22:57:59.407Z,1.10
2018-12-27T23:00:30.102Z,1.10
2018-12-27T23:02:59.656Z,1.10
2018-12-27T23:05:28.636Z,1.00
2018-12-27T23:07:57.626Z,0.90
2018-12-27T23:10:29.240Z,0.70
2018-12-27T23:12:58.172Z,0.70
2018-12-27T23:15:28.298Z,0.70
2018-12-27T23:17:58.517Z,0.80
2018-12-27T23:20:27.813Z,0.80
2018-12-27T23:22:56.845Z,0.60
2018-12-27T23:25:27.288Z,0.60
2018-12-27T23:27:56.184Z,0.50
2018-12-27T23:30:26.094Z,0.40
2018-12-27T23:32:56.416Z,0.20
2018-12-27T23:35:25.427Z,0.00
2018-12-27T23:37:54.821Z,-0.10
2018-12-27T23:40:23.823Z,-0.10
2018-12-27T23:42:52.693Z,0.00
2018-12-27T23:45:21.578Z,0.30
2018-12-27T23:47:52.899Z,0.40
2018-12-27T23:50:21.986Z,0.40
2018-12-27T23:52:50.945Z,0.30
2018-12-27T23:55:21.653Z,0.20
2018-12-27T23:57:50.499Z,0.10
